sensor_id;sensor_type;location;lat;lon;timestamp;temperature;humidity
61672;DHT22;47572;0.00000000;0.00000000;2022-08-03T00:00:07;23.40;62.60
61672;DHT22;47572;0.00000000;0.00000000;2022-08-03T00:02:33;23.40;62.60
61672;DHT22;47572;0.00000000;0.00000000;2022-08-03T00:04:59;23.40;62.60
61672;DHT22;47572;0.00000000;0.00000000;2022-08-03T00:07:25;23.40;62.60
61672;DHT22;47572;0.00000000;0.00000000;2022-08-03T00:09:51;23.40;62.60
61672;DHT22;47572;0.00000000;0.00000000;2022-08-03T00:12:16;23.40;62.60
61672;DHT22;47572;0.00000000;0.00000000;2022-08-03T00:14:42;23.30;62.50
61672;DHT22;47572;0.00000000;0.00000000;2022-08-03T00:17:08;23.40;62.60
61672;DHT22;47572;0.00000000;0.00000000;2022-08-03T00:19:34;23.30;62.60
61672;DHT22;47572;0.00000000;0.00000000;2022-08-03T00:21:59;23.30;62.50
61672;DHT22;47572;0.00000000;0.00000000;2022-08-03T00:24:25;23.30;62.60
61672;DHT22;47572;0.00000000;0.00000000;2022-08-03T00:26:51;23.30;62.50
61672;DHT22;47572;0.00000000;0.00000000;2022-08-03T00:29:17;23.30;62.60
61672;DHT22;47572;0.00000000;0.00000000;2022-08-03T00:31:43;23.30;62.50
61672;DHT22;47572;0.00000000;0.00000000;2022-08-03T00:34:09;23.30;62.50
61672;DHT22;47572;0.00000000;0.00000000;2022-08-03T00:36:34;23.30;62.50
61672;DHT22;47572;0.00000000;0.00000000;2022-08-03T00:39:00;23.30;62.50
61672;DHT22;47572;0.00000000;0.00000000;2022-08-03T00:41:26;23.30;62.50
61672;DHT22;47572;0.00000000;0.00000000;2022-08-03T00:43:52;23.30;62.50
61672;DHT22;47572;0.00000000;0.00000000;2022-08-03T00:46:18;23.30;62.50
61672;DHT22;47572;0.00000000;0.00000000;2022-08-03T00:48:44;23.30;62.50
61672;DHT22;47572;0.00000000;0.00000000;2022-08-03T00:51:11;23.30;62.50
61672;DHT22;47572;0.00000000;0.00000000;2022-08-03T00:53:37;23.30;62.60
61672;DHT22;47572;0.00000000;0.00000000;2022-08-03T00:56:03;23.30;62.50
61672;DHT22;47572;0.00000000;0.00000000;2022-08-03T00:58:29;23.30;62.50
61672;DHT22;47572;0.00000000;0.00000000;2022-08-03T01:00:55;23.30;62.50
61672;DHT22;47572;0.00000000;0.00000000;2022-08-03T01:03:20;23.30;62.50
61672;DHT22;47572;0.00000000;0.00000000;2022-08-03T01:06:03;23.30;62.50
61672;DHT22;47572;0.00000000;0.00000000;2022-08-03T01:11:14;23.30;62.40
61672;DHT22;47572;0.00000000;0.00000000;2022-08-03T01:14:11;23.30;62.50
61672;DHT22;47572;0.00000000;0.00000000;2022-08-03T01:16:47;23.30;62.40
61672;DHT22;47572;0.00000000;0.00000000;2022-08-03T01:30:11;23.30;62.50
61672;DHT22;47572;0.00000000;0.00000000;2022-08-03T01:35:32;23.30;62.50
61672;DHT22;47572;0.00000000;0.00000000;2022-08-03T01:38:07;23.30;62.40
61672;DHT22;47572;0.00000000;0.00000000;2022-08-03T01:40:35;23.20;62.40
61672;DHT22;47572;0.00000000;0.00000000;2022-08-03T01:43:05;23.30;62.40
61672;DHT22;47572;0.00000000;0.00000000;2022-08-03T01:45:32;23.30;62.50
61672;DHT22;47572;0.00000000;0.00000000;2022-08-03T01:47:59;23.20;62.40
61672;DHT22;47572;0.00000000;0.00000000;2022-08-03T01:50:28;23.20;62.40
61672;DHT22;47572;0.00000000;0.00000000;2022-08-03T01:52:55;23.20;62.40
61672;DHT22;47572;0.00000000;0.00000000;2022-08-03T01:55:24;23.20;62.40
61672;DHT22;47572;0.00000000;0.00000000;2022-08-03T01:57:53;23.20;62.40
61672;DHT22;47572;0.00000000;0.00000000;2022-08-03T02:00:20;23.20;62.40
61672;DHT22;47572;0.00000000;0.00000000;2022-08-03T02:02:48;23.20;62.40
61672;DHT22;47572;0.00000000;0.00000000;2022-08-03T02:05:15;23.20;62.40
61672;DHT22;47572;0.00000000;0.00000000;2022-08-03T02:07:44;23.20;62.30
61672;DHT22;47572;0.00000000;0.00000000;2022-08-03T02:10:12;23.20;62.40
61672;DHT22;47572;0.00000000;0.00000000;2022-08-03T02:12:39;23.20;62.40
61672;DHT22;47572;0.00000000;0.00000000;2022-08-03T02:15:08;23.20;62.40
61672;DHT22;47572;0.00000000;0.00000000;2022-08-03T02:17:35;23.20;62.50
61672;DHT22;47572;0.00000000;0.00000000;2022-08-03T02:20:03;23.20;62.40
61672;DHT22;47572;0.00000000;0.00000000;2022-08-03T02:22:32;23.20;62.40
61672;DHT22;47572;0.00000000;0.00000000;2022-08-03T02:24:58;23.20;62.40
61672;DHT22;47572;0.00000000;0.00000000;2022-08-03T02:27:26;23.20;62.40
61672;DHT22;47572;0.00000000;0.00000000;2022-08-03T02:30:06;23.20;62.40
61672;DHT22;47572;0.00000000;0.00000000;2022-08-03T02:32:39;23.20;62.40
61672;DHT22;47572;0.00000000;0.00000000;2022-08-03T02:35:09;23.20;62.40
61672;DHT22;47572;0.00000000;0.00000000;2022-08-03T02:37:45;23.20;62.30
61672;DHT22;47572;0.00000000;0.00000000;2022-08-03T02:40:14;23.10;62.40
61672;DHT22;47572;0.00000000;0.00000000;2022-08-03T02:42:42;23.20;62.40
61672;DHT22;47572;0.00000000;0.00000000;2022-08-03T02:45:11;23.20;62.40
61672;DHT22;47572;0.00000000;0.00000000;2022-08-03T02:47:40;23.20;62.50
61672;DHT22;47572;0.00000000;0.00000000;2022-08-03T02:50:09;23.20;62.40
61672;DHT22;47572;0.00000000;0.00000000;2022-08-03T02:52:36;23.10;62.40
61672;DHT22;47572;0.00000000;0.00000000;2022-08-03T02:55:04;23.20;62.50
61672;DHT22;47572;0.00000000;0.00000000;2022-08-03T02:57:34;23.20;62.50
61672;DHT22;47572;0.00000000;0.00000000;2022-08-03T03:00:01;23.20;62.50
61672;DHT22;47572;0.00000000;0.00000000;2022-08-03T03:02:27;23.10;62.40
61672;DHT22;47572;0.00000000;0.00000000;2022-08-03T03:04:54;23.20;62.50
61672;DHT22;47572;0.00000000;0.00000000;2022-08-03T03:07:21;23.10;62.40
61672;DHT22;47572;0.00000000;0.00000000;2022-08-03T03:09:47;23.10;62.40
61672;DHT22;47572;0.00000000;0.00000000;2022-08-03T03:12:15;23.10;62.30
61672;DHT22;47572;0.00000000;0.00000000;2022-08-03T03:14:41;23.20;62.40
61672;DHT22;47572;0.00000000;0.00000000;2022-08-03T03:17:09;23.20;62.50
61672;DHT22;47572;0.00000000;0.00000000;2022-08-03T03:19:36;23.10;62.40
61672;DHT22;47572;0.00000000;0.00000000;2022-08-03T03:22:04;23.10;62.40
61672;DHT22;47572;0.00000000;0.00000000;2022-08-03T03:24:34;23.10;62.40
61672;DHT22;47572;0.00000000;0.00000000;2022-08-03T03:27:00;23.10;62.50
61672;DHT22;47572;0.00000000;0.00000000;2022-08-03T03:29:27;23.10;62.40
61672;DHT22;47572;0.00000000;0.00000000;2022-08-03T03:31:53;23.10;62.40
61672;DHT22;47572;0.00000000;0.00000000;2022-08-03T03:34:20;23.10;62.40
61672;DHT22;47572;0.00000000;0.00000000;2022-08-03T03:36:45;23.10;62.40
61672;DHT22;47572;0.00000000;0.00000000;2022-08-03T03:39:11;23.10;62.40
61672;DHT22;47572;0.00000000;0.00000000;2022-08-03T03:41:38;23.10;62.40
61672;DHT22;47572;0.00000000;0.00000000;2022-08-03T03:44:05;23.10;62.40
61672;DHT22;47572;0.00000000;0.00000000;2022-08-03T03:46:30;23.10;62.30
61672;DHT22;47572;0.00000000;0.00000000;2022-08-03T03:48:57;23.10;62.40
61672;DHT22;47572;0.00000000;0.00000000;2022-08-03T03:51:22;23.10;62.30
61672;DHT22;47572;0.00000000;0.00000000;2022-08-03T03:53:56;23.10;62.40
61672;DHT22;47572;0.00000000;0.00000000;2022-08-03T03:56:23;23.10;62.30
61672;DHT22;47572;0.00000000;0.00000000;2022-08-03T03:58:49;23.10;62.40
61672;DHT22;47572;0.00000000;0.00000000;2022-08-03T04:01:15;23.10;62.40
61672;DHT22;47572;0.00000000;0.00000000;2022-08-03T04:03:41;23.10;62.40
61672;DHT22;47572;0.00000000;0.00000000;2022-08-03T04:06:07;23.10;62.40
61672;DHT22;47572;0.00000000;0.00000000;2022-08-03T04:08:52;23.10;62.40
61672;DHT22;47572;0.00000000;0.00000000;2022-08-03T04:11:49;23.10;62.40
61672;DHT22;47572;0.00000000;0.00000000;2022-08-03T04:14:35;23.10;62.30
61672;DHT22;47572;0.00000000;0.00000000;2022-08-03T04:17:06;23.10;62.30
61672;DHT22;47572;0.00000000;0.00000000;2022-08-03T04:19:39;23.10;62.50
61672;DHT22;47572;0.00000000;0.00000000;2022-08-03T04:22:10;23.10;62.40
61672;DHT22;47572;0.00000000;0.00000000;2022-08-03T04:24:51;23.10;62.40
61672;DHT22;47572;0.00000000;0.00000000;2022-08-03T04:27:23;23.10;62.40
61672;DHT22;47572;0.00000000;0.00000000;2022-08-03T04:29:52;23.10;62.40
61672;DHT22;47572;0.00000000;0.00000000;2022-08-03T04:32:19;23.10;62.40
61672;DHT22;47572;0.00000000;0.00000000;2022-08-03T04:34:48;23.10;62.40
61672;DHT22;47572;0.00000000;0.00000000;2022-08-03T04:37:20;23.00;62.30
61672;DHT22;47572;0.00000000;0.00000000;2022-08-03T04:39:48;23.10;62.40
61672;DHT22;47572;0.00000000;0.00000000;2022-08-03T04:42:15;23.10;62.40
61672;DHT22;47572;0.00000000;0.00000000;2022-08-03T04:44:45;23.10;62.40
61672;DHT22;47572;0.00000000;0.00000000;2022-08-03T04:47:11;23.10;62.40
61672;DHT22;47572;0.00000000;0.00000000;2022-08-03T04:49:37;23.10;62.40
61672;DHT22;47572;0.00000000;0.00000000;2022-08-03T04:52:04;23.10;62.40
61672;DHT22;47572;0.00000000;0.00000000;2022-08-03T04:54:31;23.10;62.40
61672;DHT22;47572;0.00000000;0.00000000;2022-08-03T04:57:04;23.10;62.40
61672;DHT22;47572;0.00000000;0.00000000;2022-08-03T04:59:30;23.10;62.40
61672;DHT22;47572;0.00000000;0.00000000;2022-08-03T05:01:56;23.10;62.50
61672;DHT22;47572;0.00000000;0.00000000;2022-08-03T05:04:21;23.10;62.40
61672;DHT22;47572;0.00000000;0.00000000;2022-08-03T05:06:47;23.10;62.40
61672;DHT22;47572;0.00000000;0.00000000;2022-08-03T05:09:13;23.00;62.40
61672;DHT22;47572;0.00000000;0.00000000;2022-08-03T05:11:39;23.10;62.40
61672;DHT22;47572;0.00000000;0.00000000;2022-08-03T05:14:05;23.10;62.50
61672;DHT22;47572;0.00000000;0.00000000;2022-08-03T05:16:30;23.10;62.40
61672;DHT22;47572;0.00000000;0.00000000;2022-08-03T05:18:56;23.10;62.50
61672;DHT22;47572;0.00000000;0.00000000;2022-08-03T05:21:22;23.10;62.50
61672;DHT22;47572;0.00000000;0.00000000;2022-08-03T05:23:48;23.10;62.40
61672;DHT22;47572;0.00000000;0.00000000;2022-08-03T05:26:13;23.10;62.40
61672;DHT22;47572;0.00000000;0.00000000;2022-08-03T05:28:39;23.10;62.40
61672;DHT22;47572;0.00000000;0.00000000;2022-08-03T05:31:05;23.10;63.30
61672;DHT22;47572;0.00000000;0.00000000;2022-08-03T05:33:31;23.10;62.40
61672;DHT22;47572;0.00000000;0.00000000;2022-08-03T05:35:57;23.10;62.40
61672;DHT22;47572;0.00000000;0.00000000;2022-08-03T05:38:24;23.10;62.40
61672;DHT22;47572;0.00000000;0.00000000;2022-08-03T05:40:50;23.10;62.40
61672;DHT22;47572;0.00000000;0.00000000;2022-08-03T05:43:16;23.10;62.40
61672;DHT22;47572;0.00000000;0.00000000;2022-08-03T05:45:42;23.10;62.50
61672;DHT22;47572;0.00000000;0.00000000;2022-08-03T05:48:08;23.10;62.40
61672;DHT22;47572;0.00000000;0.00000000;2022-08-03T05:50:33;23.10;62.50
61672;DHT22;47572;0.00000000;0.00000000;2022-08-03T05:53:01;23.10;62.40
61672;DHT22;47572;0.00000000;0.00000000;2022-08-03T05:55:27;23.10;62.50
61672;DHT22;47572;0.00000000;0.00000000;2022-08-03T05:57:53;23.10;62.40
61672;DHT22;47572;0.00000000;0.00000000;2022-08-03T06:00:19;23.10;62.40
61672;DHT22;47572;0.00000000;0.00000000;2022-08-03T06:02:45;23.10;62.40
61672;DHT22;47572;0.00000000;0.00000000;2022-08-03T06:05:11;23.10;62.40
61672;DHT22;47572;0.00000000;0.00000000;2022-08-03T06:07:37;23.20;62.40
61672;DHT22;47572;0.00000000;0.00000000;2022-08-03T06:10:03;23.20;62.50
61672;DHT22;47572;0.00000000;0.00000000;2022-08-03T06:12:30;23.20;62.50
61672;DHT22;47572;0.00000000;0.00000000;2022-08-03T06:14:56;23.20;62.50
61672;DHT22;47572;0.00000000;0.00000000;2022-08-03T06:17:22;23.20;62.60
61672;DHT22;47572;0.00000000;0.00000000;2022-08-03T06:19:47;23.20;62.70
61672;DHT22;47572;0.00000000;0.00000000;2022-08-03T06:22:16;23.20;62.70
61672;DHT22;47572;0.00000000;0.00000000;2022-08-03T06:24:41;23.20;62.60
61672;DHT22;47572;0.00000000;0.00000000;2022-08-03T06:27:08;23.30;62.70
61672;DHT22;47572;0.00000000;0.00000000;2022-08-03T06:29:34;23.30;62.70
61672;DHT22;47572;0.00000000;0.00000000;2022-08-03T06:32:00;23.30;62.80
61672;DHT22;47572;0.00000000;0.00000000;2022-08-03T06:34:26;23.30;62.70
61672;DHT22;47572;0.00000000;0.00000000;2022-08-03T06:36:51;23.30;62.70
61672;DHT22;47572;0.00000000;0.00000000;2022-08-03T06:39:20;23.30;62.60
61672;DHT22;47572;0.00000000;0.00000000;2022-08-03T06:41:46;23.30;62.60
61672;DHT22;47572;0.00000000;0.00000000;2022-08-03T06:44:12;23.40;62.70
61672;DHT22;47572;0.00000000;0.00000000;2022-08-03T06:46:38;23.40;62.70
61672;DHT22;47572;0.00000000;0.00000000;2022-08-03T06:49:05;23.30;62.60
61672;DHT22;47572;0.00000000;0.00000000;2022-08-03T06:51:31;23.40;62.90
61672;DHT22;47572;0.00000000;0.00000000;2022-08-03T06:53:57;23.40;63.90
61672;DHT22;47572;0.00000000;0.00000000;2022-08-03T06:56:23;23.50;64.70
61672;DHT22;47572;0.00000000;0.00000000;2022-08-03T06:58:49;23.60;65.70
61672;DHT22;47572;0.00000000;0.00000000;2022-08-03T07:01:16;23.60;65.80
61672;DHT22;47572;0.00000000;0.00000000;2022-08-03T07:03:41;23.70;66.00
61672;DHT22;47572;0.00000000;0.00000000;2022-08-03T07:06:07;23.80;66.20
61672;DHT22;47572;0.00000000;0.00000000;2022-08-03T07:08:33;23.80;66.40
61672;DHT22;47572;0.00000000;0.00000000;2022-08-03T07:10:59;23.80;66.90
61672;DHT22;47572;0.00000000;0.00000000;2022-08-03T07:13:25;23.90;67.10
61672;DHT22;47572;0.00000000;0.00000000;2022-08-03T07:15:51;23.90;67.00
61672;DHT22;47572;0.00000000;0.00000000;2022-08-03T07:18:17;23.90;67.10
61672;DHT22;47572;0.00000000;0.00000000;2022-08-03T07:20:43;24.00;67.30
61672;DHT22;47572;0.00000000;0.00000000;2022-08-03T07:23:09;24.00;67.10
61672;DHT22;47572;0.00000000;0.00000000;2022-08-03T07:25:35;24.00;67.30
61672;DHT22;47572;0.00000000;0.00000000;2022-08-03T07:28:00;24.00;67.50
61672;DHT22;47572;0.00000000;0.00000000;2022-08-03T07:30:26;24.00;67.70
61672;DHT22;47572;0.00000000;0.00000000;2022-08-03T07:32:52;24.10;67.90
61672;DHT22;47572;0.00000000;0.00000000;2022-08-03T07:35:18;24.10;67.90
61672;DHT22;47572;0.00000000;0.00000000;2022-08-03T07:37:44;24.10;67.90
61672;DHT22;47572;0.00000000;0.00000000;2022-08-03T07:40:10;24.10;67.80
61672;DHT22;47572;0.00000000;0.00000000;2022-08-03T07:42:36;24.20;67.90
61672;DHT22;47572;0.00000000;0.00000000;2022-08-03T07:45:03;24.20;67.80
61672;DHT22;47572;0.00000000;0.00000000;2022-08-03T07:47:29;24.20;67.90
61672;DHT22;47572;0.00000000;0.00000000;2022-08-03T07:49:56;24.20;67.80
61672;DHT22;47572;0.00000000;0.00000000;2022-08-03T07:52:22;24.20;67.60
61672;DHT22;47572;0.00000000;0.00000000;2022-08-03T07:55:07;24.20;67.20
61672;DHT22;47572;0.00000000;0.00000000;2022-08-03T07:57:34;24.20;67.00
61672;DHT22;47572;0.00000000;0.00000000;2022-08-03T08:00:01;24.20;66.80
61672;DHT22;47572;0.00000000;0.00000000;2022-08-03T08:02:27;24.20;66.70
61672;DHT22;47572;0.00000000;0.00000000;2022-08-03T08:04:53;24.20;66.60
61672;DHT22;47572;0.00000000;0.00000000;2022-08-03T08:07:19;24.20;66.50
61672;DHT22;47572;0.00000000;0.00000000;2022-08-03T08:09:45;24.20;66.50
61672;DHT22;47572;0.00000000;0.00000000;2022-08-03T08:12:11;24.20;66.40
61672;DHT22;47572;0.00000000;0.00000000;2022-08-03T08:14:37;24.20;66.50
61672;DHT22;47572;0.00000000;0.00000000;2022-08-03T08:17:03;24.20;66.40
61672;DHT22;47572;0.00000000;0.00000000;2022-08-03T08:19:29;24.20;66.40
61672;DHT22;47572;0.00000000;0.00000000;2022-08-03T08:21:55;24.20;66.40
61672;DHT22;47572;0.00000000;0.00000000;2022-08-03T08:24:21;24.20;66.40
61672;DHT22;47572;0.00000000;0.00000000;2022-08-03T08:26:46;24.20;66.40
61672;DHT22;47572;0.00000000;0.00000000;2022-08-03T08:29:12;24.20;66.40
61672;DHT22;47572;0.00000000;0.00000000;2022-08-03T08:31:38;24.20;66.30
61672;DHT22;47572;0.00000000;0.00000000;2022-08-03T08:34:04;24.20;66.40
61672;DHT22;47572;0.00000000;0.00000000;2022-08-03T08:36:33;24.20;66.40
61672;DHT22;47572;0.00000000;0.00000000;2022-08-03T08:38:59;24.20;66.40
61672;DHT22;47572;0.00000000;0.00000000;2022-08-03T08:41:25;24.20;66.40
61672;DHT22;47572;0.00000000;0.00000000;2022-08-03T08:43:52;24.20;66.40
61672;DHT22;47572;0.00000000;0.00000000;2022-08-03T08:46:19;24.20;66.30
61672;DHT22;47572;0.00000000;0.00000000;2022-08-03T08:48:45;24.20;66.40
61672;DHT22;47572;0.00000000;0.00000000;2022-08-03T08:51:13;24.20;66.30
61672;DHT22;47572;0.00000000;0.00000000;2022-08-03T08:53:42;24.20;66.40
61672;DHT22;47572;0.00000000;0.00000000;2022-08-03T08:56:12;24.20;66.30
61672;DHT22;47572;0.00000000;0.00000000;2022-08-03T08:58:45;24.20;66.30
61672;DHT22;47572;0.00000000;0.00000000;2022-08-03T09:01:12;24.20;66.40
61672;DHT22;47572;0.00000000;0.00000000;2022-08-03T09:03:38;24.20;66.40
61672;DHT22;47572;0.00000000;0.00000000;2022-08-03T09:06:04;24.30;66.40
61672;DHT22;47572;0.00000000;0.00000000;2022-08-03T09:08:32;24.30;66.40
61672;DHT22;47572;0.00000000;0.00000000;2022-08-03T09:10:58;24.30;66.40
61672;DHT22;47572;0.00000000;0.00000000;2022-08-03T09:13:24;24.30;66.60
61672;DHT22;47572;0.00000000;0.00000000;2022-08-03T09:16:16;24.30;66.50
61672;DHT22;47572;0.00000000;0.00000000;2022-08-03T09:18:45;24.30;66.50
61672;DHT22;47572;0.00000000;0.00000000;2022-08-03T09:21:12;24.30;66.60
61672;DHT22;47572;0.00000000;0.00000000;2022-08-03T09:23:49;24.30;66.60
61672;DHT22;47572;0.00000000;0.00000000;2022-08-03T09:26:23;24.30;66.70
61672;DHT22;47572;0.00000000;0.00000000;2022-08-03T09:29:09;24.40;66.80
61672;DHT22;47572;0.00000000;0.00000000;2022-08-03T09:31:40;24.40;66.90
61672;DHT22;47572;0.00000000;0.00000000;2022-08-03T09:34:08;24.40;66.90
61672;DHT22;47572;0.00000000;0.00000000;2022-08-03T09:39:18;24.40;66.90
61672;DHT22;47572;0.00000000;0.00000000;2022-08-03T09:41:46;24.40;67.00
61672;DHT22;47572;0.00000000;0.00000000;2022-08-03T09:44:13;24.40;67.00
61672;DHT22;47572;0.00000000;0.00000000;2022-08-03T09:46:55;24.40;66.90
61672;DHT22;47572;0.00000000;0.00000000;2022-08-03T09:49:22;24.40;67.00
61672;DHT22;47572;0.00000000;0.00000000;2022-08-03T09:51:48;24.40;66.90
61672;DHT22;47572;0.00000000;0.00000000;2022-08-03T09:54:30;24.40;67.00
61672;DHT22;47572;0.00000000;0.00000000;2022-08-03T09:56:57;24.40;67.10
61672;DHT22;47572;0.00000000;0.00000000;2022-08-03T09:59:25;24.40;67.00
61672;DHT22;47572;0.00000000;0.00000000;2022-08-03T10:01:52;24.40;67.00
61672;DHT22;47572;0.00000000;0.00000000;2022-08-03T10:04:19;24.40;67.10
61672;DHT22;47572;0.00000000;0.00000000;2022-08-03T10:07:00;24.40;67.10
61672;DHT22;47572;0.00000000;0.00000000;2022-08-03T10:09:26;24.40;67.10
61672;DHT22;47572;0.00000000;0.00000000;2022-08-03T10:11:52;24.40;67.10
61672;DHT22;47572;0.00000000;0.00000000;2022-08-03T10:14:18;24.40;67.00
61672;DHT22;47572;0.00000000;0.00000000;2022-08-03T10:16:45;24.40;67.00
61672;DHT22;47572;0.00000000;0.00000000;2022-08-03T10:19:11;24.40;67.00
61672;DHT22;47572;0.00000000;0.00000000;2022-08-03T10:21:41;24.40;67.10
61672;DHT22;47572;0.00000000;0.00000000;2022-08-03T10:24:08;24.50;67.20
61672;DHT22;47572;0.00000000;0.00000000;2022-08-03T10:26:38;24.50;67.10
61672;DHT22;47572;0.00000000;0.00000000;2022-08-03T10:29:10;24.50;67.20
61672;DHT22;47572;0.00000000;0.00000000;2022-08-03T10:31:43;24.50;67.20
61672;DHT22;47572;0.00000000;0.00000000;2022-08-03T10:34:17;24.50;67.20
61672;DHT22;47572;0.00000000;0.00000000;2022-08-03T10:36:44;24.50;67.20
61672;DHT22;47572;0.00000000;0.00000000;2022-08-03T10:39:12;24.50;67.20
61672;DHT22;47572;0.00000000;0.00000000;2022-08-03T10:41:40;24.50;67.20
61672;DHT22;47572;0.00000000;0.00000000;2022-08-03T10:44:09;24.50;67.30
61672;DHT22;47572;0.00000000;0.00000000;2022-08-03T10:46:38;24.50;67.30
61672;DHT22;47572;0.00000000;0.00000000;2022-08-03T10:49:04;24.50;67.40
61672;DHT22;47572;0.00000000;0.00000000;2022-08-03T10:51:31;24.50;67.40
61672;DHT22;47572;0.00000000;0.00000000;2022-08-03T10:53:58;24.50;67.30
61672;DHT22;47572;0.00000000;0.00000000;2022-08-03T11:02:00;24.50;67.40
61672;DHT22;47572;0.00000000;0.00000000;2022-08-03T11:04:26;24.60;67.40
61672;DHT22;47572;0.00000000;0.00000000;2022-08-03T11:09:49;24.60;67.40
61672;DHT22;47572;0.00000000;0.00000000;2022-08-03T11:12:33;24.60;67.40
61672;DHT22;47572;0.00000000;0.00000000;2022-08-03T11:15:03;24.60;67.60
61672;DHT22;47572;0.00000000;0.00000000;2022-08-03T11:17:31;24.60;67.60
61672;DHT22;47572;0.00000000;0.00000000;2022-08-03T11:19:58;24.60;67.60
61672;DHT22;47572;0.00000000;0.00000000;2022-08-03T11:22:24;24.60;67.60
61672;DHT22;47572;0.00000000;0.00000000;2022-08-03T11:30:05;24.70;67.70
61672;DHT22;47572;0.00000000;0.00000000;2022-08-03T11:40:44;24.70;67.90
61672;DHT22;47572;0.00000000;0.00000000;2022-08-03T11:46:06;24.70;67.90
61672;DHT22;47572;0.00000000;0.00000000;2022-08-03T11:48:40;24.70;67.90
61672;DHT22;47572;0.00000000;0.00000000;2022-08-03T11:51:25;24.70;67.80
61672;DHT22;47572;0.00000000;0.00000000;2022-08-03T11:54:02;24.70;67.70
61672;DHT22;47572;0.00000000;0.00000000;2022-08-03T11:56:42;24.70;67.70
61672;DHT22;47572;0.00000000;0.00000000;2022-08-03T11:59:08;24.70;67.70
61672;DHT22;47572;0.00000000;0.00000000;2022-08-03T12:01:34;24.70;67.70
61672;DHT22;47572;0.00000000;0.00000000;2022-08-03T12:04:04;24.70;67.70
61672;DHT22;47572;0.00000000;0.00000000;2022-08-03T12:06:30;24.70;67.70
61672;DHT22;47572;0.00000000;0.00000000;2022-08-03T12:09:16;24.70;67.70
61672;DHT22;47572;0.00000000;0.00000000;2022-08-03T12:11:42;24.70;67.70
61672;DHT22;47572;0.00000000;0.00000000;2022-08-03T12:14:15;24.70;67.70
61672;DHT22;47572;0.00000000;0.00000000;2022-08-03T12:16:46;24.70;67.70
61672;DHT22;47572;0.00000000;0.00000000;2022-08-03T12:19:13;24.80;67.70
61672;DHT22;47572;0.00000000;0.00000000;2022-08-03T12:21:49;24.70;67.70
61672;DHT22;47572;0.00000000;0.00000000;2022-08-03T12:24:15;24.70;67.60
61672;DHT22;47572;0.00000000;0.00000000;2022-08-03T12:26:49;24.70;67.60
61672;DHT22;47572;0.00000000;0.00000000;2022-08-03T12:29:20;24.70;67.60
61672;DHT22;47572;0.00000000;0.00000000;2022-08-03T12:31:47;24.80;67.70
61672;DHT22;47572;0.00000000;0.00000000;2022-08-03T12:34:13;24.80;67.70
61672;DHT22;47572;0.00000000;0.00000000;2022-08-03T12:36:50;24.80;67.60
61672;DHT22;47572;0.00000000;0.00000000;2022-08-03T12:39:17;24.80;67.60
61672;DHT22;47572;0.00000000;0.00000000;2022-08-03T12:41:52;24.80;67.60
61672;DHT22;47572;0.00000000;0.00000000;2022-08-03T12:44:28;24.80;67.60
61672;DHT22;47572;0.00000000;0.00000000;2022-08-03T12:46:57;24.80;67.70
61672;DHT22;47572;0.00000000;0.00000000;2022-08-03T12:49:23;24.80;67.60
61672;DHT22;47572;0.00000000;0.00000000;2022-08-03T12:54:20;24.80;67.60
61672;DHT22;47572;0.00000000;0.00000000;2022-08-03T12:57:01;24.80;67.60
61672;DHT22;47572;0.00000000;0.00000000;2022-08-03T13:01:58;24.80;67.60
61672;DHT22;47572;0.00000000;0.00000000;2022-08-03T13:04:33;24.80;67.60
61672;DHT22;47572;0.00000000;0.00000000;2022-08-03T13:07:05;24.90;67.60
61672;DHT22;47572;0.00000000;0.00000000;2022-08-03T13:09:46;24.90;67.50
61672;DHT22;47572;0.00000000;0.00000000;2022-08-03T13:12:15;24.90;67.50
61672;DHT22;47572;0.00000000;0.00000000;2022-08-03T13:14:43;24.90;67.50
61672;DHT22;47572;0.00000000;0.00000000;2022-08-03T13:17:09;24.90;67.50
61672;DHT22;47572;0.00000000;0.00000000;2022-08-03T13:19:36;24.90;67.40
61672;DHT22;47572;0.00000000;0.00000000;2022-08-03T13:22:19;24.90;67.50
61672;DHT22;47572;0.00000000;0.00000000;2022-08-03T13:24:48;24.90;67.40
61672;DHT22;47572;0.00000000;0.00000000;2022-08-03T13:27:15;24.90;67.40
61672;DHT22;47572;0.00000000;0.00000000;2022-08-03T13:29:41;24.90;67.50
61672;DHT22;47572;0.00000000;0.00000000;2022-08-03T13:32:08;25.00;67.50
61672;DHT22;47572;0.00000000;0.00000000;2022-08-03T13:34:34;25.00;67.50
61672;DHT22;47572;0.00000000;0.00000000;2022-08-03T13:37:00;25.00;67.40
61672;DHT22;47572;0.00000000;0.00000000;2022-08-03T13:39:26;25.00;67.50
61672;DHT22;47572;0.00000000;0.00000000;2022-08-03T13:41:52;25.00;67.50
61672;DHT22;47572;0.00000000;0.00000000;2022-08-03T13:44:18;25.00;67.40
61672;DHT22;47572;0.00000000;0.00000000;2022-08-03T13:46:44;25.00;67.40
61672;DHT22;47572;0.00000000;0.00000000;2022-08-03T13:49:10;25.10;67.50
61672;DHT22;47572;0.00000000;0.00000000;2022-08-03T13:51:36;25.00;67.40
61672;DHT22;47572;0.00000000;0.00000000;2022-08-03T13:54:02;25.00;67.40
61672;DHT22;47572;0.00000000;0.00000000;2022-08-03T13:56:29;25.00;67.30
61672;DHT22;47572;0.00000000;0.00000000;2022-08-03T13:58:56;25.10;67.40
61672;DHT22;47572;0.00000000;0.00000000;2022-08-03T14:01:22;25.10;67.30
61672;DHT22;47572;0.00000000;0.00000000;2022-08-03T14:03:50;25.10;67.30
61672;DHT22;47572;0.00000000;0.00000000;2022-08-03T14:06:22;25.10;67.30
61672;DHT22;47572;0.00000000;0.00000000;2022-08-03T14:08:48;25.10;67.20
61672;DHT22;47572;0.00000000;0.00000000;2022-08-03T14:11:14;25.10;67.20
61672;DHT22;47572;0.00000000;0.00000000;2022-08-03T14:13:41;25.10;67.00
61672;DHT22;47572;0.00000000;0.00000000;2022-08-03T14:16:06;25.20;67.00
61672;DHT22;47572;0.00000000;0.00000000;2022-08-03T14:18:32;25.10;66.80
61672;DHT22;47572;0.00000000;0.00000000;2022-08-03T14:20:59;25.20;66.80
61672;DHT22;47572;0.00000000;0.00000000;2022-08-03T14:23:25;25.20;67.60
61672;DHT22;47572;0.00000000;0.00000000;2022-08-03T14:25:51;25.20;66.70
61672;DHT22;47572;0.00000000;0.00000000;2022-08-03T14:28:18;25.20;66.60